createdAt,value
2018-05-08T00:02:02.559Z,99.90
2018-05-08T00:04:28.613Z,99.90
2018-05-08T00:06:55.678Z,99.90
2018-05-08T00:09:22.513Z,99.90
2018-05-08T00:11:48.545Z,99.90
2018-05-08T00:14:14.596Z,99.90
2018-05-08T00:16:40.666Z,99.90
2018-05-08T00:19:06.748Z,99.90
2018-05-08T00:21:33.423Z,99.90
2018-05-08T00:23:59.480Z,99.90
2018-05-08T00:26:25.503Z,99.90
2018-05-08T00:28:52.301Z,99.90
2018-05-08T00:31:18.597Z,99.90
2018-05-08T00:33:45.974Z,99.90
2018-05-08T00:36:12.771Z,99.90
2018-05-08T00:38:38.843Z,99.90
2018-05-08T00:41:05.221Z,99.90
2018-05-08T00:43:32.004Z,99.90
2018-05-08T00:45:58.045Z,99.90
2018-05-08T00:48:24.146Z,99.90
2018-05-08T00:50:50.912Z,99.90
2018-05-08T00:53:16.932Z,99.90
2018-05-08T00:55:43.734Z,99.90
2018-05-08T00:58:09.774Z,99.90
2018-05-08T01:00:35.940Z,99.90
2018-05-08T01:03:02.209Z,99.90
2018-05-08T01:05:28.970Z,99.90
2018-05-08T01:07:55.765Z,99.90
2018-05-08T01:10:21.808Z,99.90
2018-05-08T01:12:47.840Z,99.90
2018-05-08T01:15:14.013Z,99.90
2018-05-08T01:17:40.058Z,99.90
2018-05-08T01:20:06.845Z,99.90
2018-05-08T01:22:32.879Z,99.90
2018-05-08T01:24:58.941Z,99.90
2018-05-08T01:27:25.025Z,99.90
2018-05-08T01:29:51.060Z,99.90
2018-05-08T01:32:17.856Z,99.90
2018-05-08T01:34:43.920Z,99.90
2018-05-08T01:37:09.967Z,99.90
2018-05-08T01:39:36.019Z,99.90
2018-05-08T01:42:02.065Z,99.90
2018-05-08T01:44:28.113Z,99.90
2018-05-08T01:46:54.181Z,99.90
2018-05-08T01:49:20.235Z,99.90
2018-05-08T01:51:46.279Z,99.90
2018-05-08T01:54:12.371Z,99.90
2018-05-08T01:56:38.462Z,99.90
2018-05-08T01:59:04.538Z,99.90
2018-05-08T02:01:31.320Z,99.90
2018-05-08T02:03:57.362Z,99.90
2018-05-08T02:06:23.422Z,99.90
2018-05-08T02:08:49.494Z,99.90
2018-05-08T02:11:15.521Z,99.90
2018-05-08T02:13:41.565Z,99.90
2018-05-08T02:16:08.353Z,99.90
2018-05-08T02:18:34.420Z,99.90
2018-05-08T02:21:00.448Z,99.90
2018-05-08T02:23:26.478Z,99.90
2018-05-08T02:25:52.589Z,99.90
2018-05-08T02:28:19.319Z,99.90
2018-05-08T02:30:45.379Z,99.90
2018-05-08T02:33:11.432Z,99.90
2018-05-08T02:35:37.482Z,99.90
2018-05-08T02:38:03.534Z,99.90
2018-05-08T02:40:29.574Z,99.90
2018-05-08T02:42:55.598Z,99.90
2018-05-08T02:45:28.630Z,99.90
2018-05-08T02:47:54.735Z,99.90
2018-05-08T02:50:20.806Z,99.90
2018-05-08T02:52:46.843Z,99.90
2018-05-08T02:55:12.871Z,99.90
2018-05-08T02:57:38.922Z,99.90
2018-05-08T03:00:05.051Z,99.90
2018-05-08T03:02:31.112Z,99.90
2018-05-08T03:04:58.495Z,99.90
2018-05-08T03:07:24.630Z,99.90
2018-05-08T03:09:51.441Z,99.90
2018-05-08T03:12:17.604Z,99.90
2018-05-08T03:14:43.643Z,99.90
2018-05-08T03:17:09.666Z,99.90
2018-05-08T03:19:35.745Z,99.90
2018-05-08T03:22:01.800Z,99.90
2018-05-08T03:24:27.813Z,99.90
2018-05-08T03:26:54.574Z,99.90
2018-05-08T03:29:20.662Z,99.90
2018-05-08T03:31:46.723Z,99.90
2018-05-08T03:34:13.485Z,99.90
2018-05-08T03:36:40.331Z,99.90
2018-05-08T03:39:06.418Z,99.90
2018-05-08T03:41:32.453Z,99.90
2018-05-08T03:43:58.481Z,99.90
2018-05-08T03:46:24.503Z,99.90
2018-05-08T03:48:50.508Z,99.90
2018-05-08T03:51:16.870Z,99.90
2018-05-08T03:53:43.637Z,99.90
2018-05-08T03:56:09.698Z,99.90
2018-05-08T03:58:36.589Z,99.90
2018-05-08T04:01:14.900Z,99.90
2018-05-08T04:03:53.269Z,99.90
2018-05-08T04:09:36.952Z,99.90
2018-05-08T04:12:03.756Z,99.90
2018-05-08T04:14:29.778Z,99.90
2018-05-08T04:16:55.812Z,99.90
2018-05-08T04:19:21.900Z,99.90
2018-05-08T04:21:47.935Z,99.90
2018-05-08T04:24:14.001Z,99.90
2018-05-08T04:26:40.825Z,99.90
2018-05-08T04:29:06.971Z,99.90
2018-05-08T04:31:33.922Z,99.90
2018-05-08T04:34:00.301Z,99.90
2018-05-08T04:36:26.376Z,99.90
2018-05-08T04:38:52.408Z,99.90
2018-05-08T04:41:18.472Z,99.90
2018-05-08T04:43:44.505Z,99.90
2018-05-08T04:46:10.588Z,99.90
2018-05-08T04:48:37.342Z,99.90
2018-05-08T04:51:04.172Z,99.90
2018-05-08T04:53:30.421Z,99.90
2018-05-08T04:55:56.484Z,99.90
2018-05-08T04:58:22.552Z,99.90
2018-05-08T05:00:48.793Z,99.90
2018-05-08T05:03:14.812Z,99.90
2018-05-08T05:05:40.886Z,99.90
2018-05-08T05:08:06.950Z,99.90
2018-05-08T05:10:32.972Z,99.90
2018-05-08T05:12:58.998Z,99.90
2018-05-08T05:15:25.048Z,99.90
2018-05-08T05:17:51.792Z,99.90
2018-05-08T05:20:17.872Z,99.90
2018-05-08T05:22:44.701Z,99.90
2018-05-08T05:25:10.749Z,99.90
2018-05-08T05:27:36.856Z,99.90
2018-05-08T05:30:02.905Z,99.90
2018-05-08T05:32:30.453Z,99.90
2018-05-08T05:34:56.538Z,99.90
2018-05-08T05:37:23.532Z,99.90
2018-05-08T05:39:49.630Z,99.90
2018-05-08T05:42:16.395Z,99.90
2018-05-08T05:44:43.192Z,99.90
2018-05-08T05:47:09.254Z,99.90
2018-05-08T05:49:35.338Z,99.90
2018-05-08T05:52:01.407Z,99.90
2018-05-08T05:54:27.488Z,99.90
2018-05-08T05:56:53.646Z,99.90
2018-05-08T05:59:20.478Z,99.90
2018-05-08T06:01:46.525Z,99.90
2018-05-08T06:04:13.310Z,99.90
2018-05-08T06:06:39.618Z,99.90
2018-05-08T06:09:05.676Z,99.90
2018-05-08T06:11:31.713Z,99.90
2018-05-08T06:13:57.761Z,99.90
2018-05-08T06:16:23.891Z,99.90
2018-05-08T06:18:49.902Z,99.90
2018-05-08T06:21:15.934Z,99.90
2018-05-08T06:23:42.006Z,99.90
2018-05-08T06:26:08.151Z,99.90
2018-05-08T06:28:34.343Z,99.90
2018-05-08T06:31:00.404Z,99.90
2018-05-08T06:33:28.283Z,99.90
2018-05-08T06:35:54.330Z,99.90
2018-05-08T06:38:21.168Z,99.90
2018-05-08T06:40:47.302Z,99.90
2018-05-08T06:43:13.558Z,99.90
2018-05-08T06:45:39.598Z,99.90
2018-05-08T06:48:05.692Z,99.90
2018-05-08T06:50:31.769Z,99.90
2018-05-08T06:52:57.885Z,99.90
2018-05-08T06:55:23.913Z,99.90
2018-05-08T06:57:50.092Z,99.90
2018-05-08T07:00:16.904Z,99.90
2018-05-08T07:02:42.940Z,99.90
2018-05-08T07:05:08.977Z,99.90
2018-05-08T07:07:35.018Z,99.90
2018-05-08T07:10:01.052Z,99.90
2018-05-08T07:12:27.160Z,99.90
2018-05-08T07:14:53.195Z,99.90
2018-05-08T07:17:19.219Z,99.90
2018-05-08T07:19:45.995Z,99.90
2018-05-08T07:22:12.028Z,99.90
2018-05-08T07:24:38.090Z,99.90
2018-05-08T07:27:04.175Z,99.90
2018-05-08T07:29:31.010Z,99.90
2018-05-08T07:31:57.058Z,99.90
2018-05-08T07:34:23.107Z,99.90
2018-05-08T07:36:49.201Z,99.90
2018-05-08T07:39:15.213Z,99.90
2018-05-08T07:41:41.276Z,99.90
2018-05-08T07:44:07.353Z,99.90
2018-05-08T07:46:34.149Z,99.90
2018-05-08T07:49:00.152Z,99.90
2018-05-08T07:51:26.920Z,99.90
2018-05-08T07:53:52.954Z,99.90
2018-05-08T07:56:18.969Z,99.90
2018-05-08T07:58:45.828Z,99.90
2018-05-08T08:01:12.583Z,99.90
2018-05-08T08:03:39.345Z,99.90
2018-05-08T08:06:06.144Z,99.90
2018-05-08T08:08:32.144Z,99.90
2018-05-08T08:10:58.158Z,99.90
2018-05-08T08:13:25.599Z,99.90
2018-05-08T08:15:51.614Z,99.90
2018-05-08T08:18:17.670Z,99.90
2018-05-08T08:20:43.703Z,99.90
2018-05-08T08:23:09.742Z,99.90
2018-05-08T08:25:35.754Z,99.90
2018-05-08T08:28:01.772Z,99.90
2018-05-08T08:30:27.832Z,99.90
2018-05-08T08:32:54.875Z,99.90
2018-05-08T08:35:20.936Z,99.90
2018-05-08T08:37:47.001Z,99.90
2018-05-08T08:40:13.817Z,99.90
2018-05-08T08:42:39.863Z,99.90
2018-05-08T08:45:06.025Z,99.90
2018-05-08T08:47:32.112Z,99.90
2018-05-08T08:49:58.239Z,99.90
2018-05-08T08:52:25.044Z,99.90
2018-05-08T08:54:51.110Z,99.90
2018-05-08T08:57:17.147Z,99.90
2018-05-08T08:59:43.192Z,99.90
2018-05-08T09:02:09.324Z,99.90
2018-05-08T09:04:35.757Z,99.90
2018-05-08T09:07:01.938Z,99.90
2018-05-08T09:09:27.962Z,99.90
2018-05-08T09:11:54.761Z,99.90
2018-05-08T09:14:20.843Z,99.90
2018-05-08T09:16:47.633Z,99.90
2018-05-08T09:19:13.690Z,99.90
2018-05-08T09:21:39.745Z,99.90
2018-05-08T09:24:05.833Z,99.90
2018-05-08T09:26:32.640Z,99.90
2018-05-08T09:28:58.700Z,99.90
2018-05-08T09:31:24.727Z,99.90
2018-05-08T09:33:50.774Z,99.90
2018-05-08T09:36:16.843Z,99.90
2018-05-08T09:38:42.865Z,99.90
2018-05-08T09:41:08.943Z,99.90
2018-05-08T09:43:35.070Z,99.90
2018-05-08T09:46:01.121Z,99.90
2018-05-08T09:48:27.217Z,99.90
2018-05-08T09:50:53.949Z,99.90
2018-05-08T09:53:19.969Z,99.90
2018-05-08T09:55:46.707Z,99.90
2018-05-08T09:58:13.002Z,99.90
2018-05-08T10:00:39.784Z,99.90
2018-05-08T10:03:06.499Z,99.90
2018-05-08T10:05:33.258Z,99.90
2018-05-08T10:08:00.046Z,99.90
2018-05-08T10:10:26.101Z,99.90
2018-05-08T10:12:52.262Z,99.90
2018-05-08T10:15:18.336Z,98.90
2018-05-08T10:17:45.089Z,97.10
2018-05-08T10:20:11.886Z,96.70
2018-05-08T10:22:37.929Z,96.70
2018-05-08T10:25:03.941Z,95.00
2018-05-08T10:27:29.961Z,94.50
2018-05-08T10:29:56.679Z,93.00
2018-05-08T10:32:22.697Z,93.00
2018-05-08T10:34:48.714Z,92.20
2018-05-08T10:37:14.777Z,91.40
2018-05-08T10:39:40.807Z,90.50
2018-05-08T10:42:07.564Z,90.60
2018-05-08T10:44:33.611Z,90.60
2018-05-08T10:46:59.698Z,86.30
2018-05-08T10:49:25.730Z,83.50
2018-05-08T10:51:51.767Z,83.70
2018-05-08T10:54:18.603Z,77.00
2018-05-08T10:56:44.549Z,77.00
2018-05-08T10:59:11.333Z,68.90
2018-05-08T11:01:37.362Z,68.90
2018-05-08T11:04:03.381Z,66.90
2018-05-08T11:06:29.401Z,65.00
2018-05-08T11:08:56.182Z,61.20
2018-05-08T11:11:22.217Z,61.20
2018-05-08T11:13:48.214Z,60.00
2018-05-08T11:16:14.323Z,59.40
2018-05-08T11:18:40.342Z,58.40
2018-05-08T11:21:06.460Z,56.10
2018-05-08T11:23:32.485Z,53.50
2018-05-08T11:25:59.269Z,49.30
2018-05-08T11:28:25.288Z,49.20
2018-05-08T11:30:51.375Z,47.40
2018-05-08T11:33:17.428Z,46.80
2018-05-08T11:35:43.538Z,45.60
2018-05-08T11:38:09.556Z,45.70
2018-05-08T11:40:35.653Z,44.30
2018-05-08T11:43:02.471Z,43.80
2018-05-08T11:45:28.514Z,43.50
2018-05-08T11:47:54.577Z,42.20
2018-05-08T11:50:20.647Z,40.90
2018-05-08T11:52:46.691Z,40.90
2018-05-08T11:55:12.704Z,38.70
2018-05-08T11:57:39.481Z,38.00
2018-05-08T12:00:05.584Z,37.80
2018-05-08T12:02:31.607Z,37.30
2018-05-08T12:04:57.651Z,38.20
2018-05-08T12:07:23.698Z,36.90
2018-05-08T12:09:50.485Z,37.40
2018-05-08T12:12:16.517Z,36.70
2018-05-08T12:14:42.651Z,35.80
2018-05-08T12:17:08.604Z,33.80
2018-05-08T12:19:35.021Z,35.00
2018-05-08T12:22:01.051Z,34.90
2018-05-08T12:24:27.802Z,34.00
2018-05-08T12:26:54.570Z,32.90
2018-05-08T12:29:21.361Z,34.10
2018-05-08T12:31:47.407Z,34.10
2018-05-08T12:34:13.431Z,33.30
2018-05-08T12:36:39.434Z,32.90
2018-05-08T12:39:06.255Z,31.80
2018-05-08T12:41:32.285Z,31.70
2018-05-08T12:43:58.323Z,30.90
2018-05-08T12:46:24.346Z,31.10
2018-05-08T12:48:50.370Z,30.60
2018-05-08T12:51:16.394Z,29.80
2018-05-08T12:53:42.442Z,30.00
2018-05-08T12:56:08.587Z,29.30
2018-05-08T12:58:34.580Z,29.20
2018-05-08T13:01:01.401Z,29.70
2018-05-08T13:03:27.419Z,29.70
2018-05-08T13:05:53.452Z,29.80
2018-05-08T13:08:19.481Z,29.10
2018-05-08T13:10:45.527Z,29.00
2018-05-08T13:13:11.547Z,28.80
2018-05-08T13:15:37.592Z,27.50
2018-05-08T13:18:03.643Z,28.20
2018-05-08T13:20:29.713Z,28.50
2018-05-08T13:22:55.857Z,26.90
2018-05-08T13:25:21.885Z,27.20
2018-05-08T13:27:47.924Z,27.40
2018-05-08T13:30:13.991Z,26.70
2018-05-08T13:32:40.034Z,26.80
2018-05-08T13:35:06.092Z,26.00
2018-05-08T13:37:32.098Z,26.80
2018-05-08T13:39:58.122Z,26.20
2018-05-08T13:42:24.869Z,25.40
2018-05-08T13:44:51.684Z,24.70
2018-05-08T13:47:17.727Z,24.60
2018-05-08T13:49:43.807Z,25.00
2018-05-08T13:52:10.565Z,24.30
2018-05-08T13:54:37.377Z,24.70
2018-05-08T13:57:03.409Z,24.70
2018-05-08T13:59:29.557Z,24.50
2018-05-08T14:01:55.681Z,24.60
2018-05-08T14:04:21.711Z,24.50
2018-05-08T14:06:47.808Z,24.30
2018-05-08T14:09:13.758Z,24.50
2018-05-08T14:11:39.922Z,24.30
2018-05-08T14:14:05.955Z,24.10
2018-05-08T14:16:32.000Z,24.10
2018-05-08T14:18:58.057Z,23.60
2018-05-08T14:21:24.133Z,24.40
2018-05-08T14:23:50.894Z,23.90
2018-05-08T14:26:16.963Z,23.80
2018-05-08T14:28:43.002Z,23.70
2018-05-08T14:31:09.111Z,23.60
2018-05-08T14:33:35.159Z,23.00
2018-05-08T14:36:01.193Z,22.80
2018-05-08T14:38:27.254Z,23.00
2018-05-08T14:40:53.293Z,23.80
2018-05-08T14:43:19.313Z,24.00
2018-05-08T14:45:45.358Z,23.00
2018-05-08T14:48:11.390Z,22.80
2018-05-08T14:50:37.426Z,23.50
2018-05-08T14:53:03.449Z,23.50
2018-05-08T14:55:29.472Z,23.80
2018-05-08T14:57:56.247Z,23.30
2018-05-08T15:00:22.269Z,23.30
2018-05-08T15:02:48.306Z,23.00
2018-05-08T15:05:14.339Z,23.20
2018-05-08T15:07:41.093Z,23.10
2018-05-08T15:10:07.152Z,23.10
2018-05-08T15:12:33.585Z,22.80
2018-05-08T15:14:59.601Z,23.40
2018-05-08T15:17:26.384Z,23.20
2018-05-08T15:19:52.480Z,23.10
2018-05-08T15:22:18.512Z,22.80
2018-05-08T15:24:44.559Z,23.30
2018-05-08T15:27:11.348Z,22.40
2018-05-08T15:29:37.385Z,22.40
2018-05-08T15:32:03.450Z,22.60
2018-05-08T15:34:29.505Z,22.80
2018-05-08T15:36:55.533Z,23.00
2018-05-08T15:39:21.637Z,23.00
2018-05-08T15:41:47.674Z,22.60
2018-05-08T15:44:13.731Z,23.10
2018-05-08T15:46:39.778Z,22.80
2018-05-08T15:49:05.807Z,22.80
2018-05-08T15:51:31.844Z,22.30
2018-05-08T15:53:57.857Z,22.50
2018-05-08T15:56:23.870Z,23.10
2018-05-08T15:58:50.675Z,23.30
2018-05-08T16:01:16.698Z,23.30
2018-05-08T16:03:42.717Z,22.80
2018-05-08T16:06:08.899Z,23.00
2018-05-08T16:08:34.936Z,23.10
2018-05-08T16:11:01.323Z,23.00
2018-05-08T16:13:28.083Z,23.20
2018-05-08T16:15:54.841Z,23.30
2018-05-08T16:18:21.160Z,23.40
2018-05-08T16:20:48.026Z,23.40
2018-05-08T16:23:14.073Z,23.40
2018-05-08T16:25:40.938Z,23.60
2018-05-08T16:28:07.130Z,23.60
2018-05-08T16:30:33.196Z,23.30
2018-05-08T16:32:59.198Z,23.80
2018-05-08T16:35:25.261Z,23.80
2018-05-08T16:37:51.300Z,24.20
2018-05-08T16:40:17.503Z,24.40
2018-05-08T16:42:43.561Z,24.40
2018-05-08T16:45:09.659Z,24.30
2018-05-08T16:47:35.859Z,24.30
2018-05-08T16:50:02.871Z,23.80
2018-05-08T16:52:28.935Z,23.80
2018-05-08T16:54:55.043Z,23.40
2018-05-08T16:57:21.189Z,23.70
2018-05-08T16:59:47.265Z,24.30
2018-05-08T17:02:13.375Z,24.80
2018-05-08T17:04:39.575Z,24.60
2018-05-08T17:07:07.144Z,25.20
2018-05-08T17:09:33.198Z,25.10
2018-05-08T17:11:59.244Z,25.10
2018-05-08T17:14:25.287Z,25.20
2018-05-08T17:16:51.346Z,25.90
2018-05-08T17:19:17.484Z,27.20
2018-05-08T17:21:43.446Z,27.80
2018-05-08T17:24:09.510Z,29.20
2018-05-08T17:26:35.632Z,29.90
2018-05-08T17:29:01.646Z,30.60
2018-05-08T17:31:27.780Z,31.60
2018-05-08T17:33:53.837Z,32.70
2018-05-08T17:36:20.652Z,33.70
2018-05-08T17:38:46.873Z,33.70
2018-05-08T17:41:12.917Z,34.40
2018-05-08T17:43:39.549Z,34.60
2018-05-08T17:46:06.171Z,35.30
2018-05-08T17:48:32.239Z,36.10
2018-05-08T17:50:58.257Z,36.80
2018-05-08T17:53:25.108Z,37.60
2018-05-08T17:55:51.920Z,37.50
2018-05-08T17:58:17.986Z,37.50
2018-05-08T18:00:44.048Z,38.00
2018-05-08T18:03:10.849Z,38.60
2018-05-08T18:05:36.886Z,38.60
2018-05-08T18:08:02.921Z,38.90
2018-05-08T18:10:28.980Z,39.10
2018-05-08T18:12:55.061Z,39.40
2018-05-08T18:15:21.377Z,39.70
2018-05-08T18:17:47.464Z,40.30
2018-05-08T18:20:15.908Z,40.40
2018-05-08T18:22:42.049Z,41.10
2018-05-08T18:25:08.229Z,41.20
2018-05-08T18:27:34.552Z,41.20
2018-05-08T18:30:00.629Z,41.50
2018-05-08T18:32:26.670Z,41.50
2018-05-08T18:34:52.725Z,42.10
2018-05-08T18:37:18.785Z,42.30
2018-05-08T18:39:45.590Z,43.10
2018-05-08T18:42:11.763Z,43.10
2018-05-08T18:44:37.816Z,43.30
2018-05-08T18:47:04.609Z,43.20
2018-05-08T18:49:30.778Z,43.20
2018-05-08T18:51:56.677Z,43.60
2018-05-08T18:54:23.514Z,44.00
2018-05-08T18:56:50.509Z,44.00
2018-05-08T18:59:16.541Z,43.90
2018-05-08T19:01:42.802Z,44.00
2018-05-08T19:04:08.987Z,44.30
2018-05-08T19:06:35.793Z,44.90
2018-05-08T19:09:01.837Z,44.90
2018-05-08T19:11:33.929Z,45.20
2018-05-08T19:13:59.970Z,45.20
2018-05-08T19:16:26.001Z,45.70
2018-05-08T19:18:58.191Z,45.80
2018-05-08T19:21:24.516Z,45.90
2018-05-08T19:23:56.662Z,46.30
2018-05-08T19:26:22.830Z,46.30
2018-05-08T19:28:55.015Z,46.30
2018-05-08T19:31:21.060Z,46.80
2018-05-08T19:33:47.136Z,47.20
2018-05-08T19:36:19.936Z,47.50
2018-05-08T19:38:45.989Z,47.50
2018-05-08T19:41:12.048Z,48.00
2018-05-08T19:43:38.129Z,47.80
2018-05-08T19:46:04.198Z,48.00
2018-05-08T19:48:30.276Z,48.00
2018-05-08T19:50:56.335Z,48.10
2018-05-08T19:53:22.394Z,48.20
2018-05-08T19:55:49.167Z,48.60
2018-05-08T19:58:15.336Z,48.60
2018-05-08T20:00:41.457Z,48.80
2018-05-08T20:03:07.558Z,48.90
2018-05-08T20:05:35.459Z,49.40
2018-05-08T20:08:01.475Z,49.40
2018-05-08T20:10:28.309Z,49.80
2018-05-08T20:12:54.343Z,49.60
2018-05-08T20:15:20.425Z,50.00
2018-05-08T20:17:46.462Z,50.10
2018-05-08T20:20:12.495Z,50.20
2018-05-08T20:22:38.523Z,50.60
2018-05-08T20:25:05.443Z,50.90
2018-05-08T20:27:31.480Z,50.90
2018-05-08T20:29:57.691Z,51.20
2018-05-08T20:32:23.813Z,51.20
2018-05-08T20:34:49.849Z,51.20
2018-05-08T20:37:15.901Z,51.50
2018-05-08T20:39:41.914Z,51.70
2018-05-08T20:42:08.712Z,52.00
2018-05-08T20:44:34.749Z,52.00
2018-05-08T20:47:01.020Z,52.10
2018-05-08T20:49:27.030Z,52.40
2018-05-08T20:51:53.068Z,52.50
2018-05-08T20:54:19.104Z,52.90
2018-05-08T20:56:45.177Z,53.20
2018-05-08T20:59:11.970Z,53.60
2018-05-08T21:01:38.038Z,53.60
2018-05-08T21:04:04.076Z,53.70
2018-05-08T21:06:31.581Z,54.40
2018-05-08T21:08:58.376Z,54.70
2018-05-08T21:11:24.389Z,54.60
2018-05-08T21:13:50.416Z,54.90
2018-05-08T21:16:17.216Z,55.50
2018-05-08T21:18:43.289Z,55.50
2018-05-08T21:21:09.354Z,55.90
2018-05-08T21:23:36.133Z,56.40
2018-05-08T21:26:02.197Z,56.40
2018-05-08T21:28:34.229Z,56.70
2018-05-08T21:31:06.385Z,57.00
2018-05-08T21:33:33.200Z,57.90
2018-05-08T21:35:59.270Z,57.90
2018-05-08T21:38:25.345Z,58.70
2018-05-08T21:40:51.409Z,59.10
2018-05-08T21:43:17.447Z,59.90
2018-05-08T21:45:43.858Z,60.20
2018-05-08T21:48:10.643Z,62.30
2018-05-08T21:50:36.662Z,62.30
2018-05-08T21:53:02.741Z,63.90
2018-05-08T21:55:28.785Z,65.50
2018-05-08T21:57:54.811Z,67.00
2018-05-08T22:00:20.873Z,69.20
2018-05-08T22:02:46.886Z,72.10
2018-05-08T22:05:12.906Z,75.20
2018-05-08T22:07:38.951Z,75.30
2018-05-08T22:10:05.065Z,75.00
2018-05-08T22:12:31.103Z,75.90
2018-05-08T22:14:57.115Z,77.60
2018-05-08T22:17:23.897Z,80.40
2018-05-08T22:19:49.922Z,80.40
2018-05-08T22:22:15.978Z,82.60
2018-05-08T22:24:42.034Z,85.10
2018-05-08T22:27:08.083Z,86.20
2018-05-08T22:29:34.121Z,87.90
2018-05-08T22:32:00.178Z,90.40
2018-05-08T22:34:27.085Z,91.90
2018-05-08T22:36:53.161Z,91.90
2018-05-08T22:39:19.232Z,93.20
2018-05-08T22:41:46.020Z,96.00
2018-05-08T22:44:12.157Z,96.00
2018-05-08T22:46:38.157Z,97.50
2018-05-08T22:49:05.074Z,99.90
2018-05-08T22:51:31.325Z,99.90
2018-05-08T22:53:57.352Z,99.90
2018-05-08T22:56:23.408Z,99.90
2018-05-08T22:58:49.623Z,99.90
2018-05-08T23:01:15.697Z,99.90
2018-05-08T23:03:41.788Z,99.90
2018-05-08T23:06:07.947Z,99.90
2018-05-08T23:08:34.017Z,99.90
2018-05-08T23:11:00.839Z,99.90
2018-05-08T23:13:26.883Z,99.90
2018-05-08T23:15:52.969Z,99.90
2018-05-08T23:18:18.992Z,99.90
2018-05-08T23:20:45.774Z,99.90
2018-05-08T23:23:11.858Z,99.90
2018-05-08T23:25:37.930Z,99.90
2018-05-08T23:28:03.998Z,99.90
2018-05-08T23:30:30.020Z,99.90
2018-05-08T23:32:56.919Z,99.90
2018-05-08T23:35:22.989Z,99.90
2018-05-08T23:37:49.042Z,99.90
2018-05-08T23:40:15.120Z,99.90
2018-05-08T23:42:41.168Z,99.90
2018-05-08T23:45:07.244Z,99.90
2018-05-08T23:47:33.289Z,99.90
2018-05-08T23:49:59.325Z,99.90
2018-05-08T23:52:25.397Z,99.90
2018-05-08T23:54:51.429Z,99.90
2018-05-08T23:57:17.440Z,99.90
2018-05-08T23:59:43.489Z,99.90
